createdAt,value
2018-06-22T00:01:02.688Z,2.80
2018-06-22T00:03:30.827Z,2.40
2018-06-22T00:05:58.911Z,2.20
2018-06-22T00:08:27.331Z,2.20
2018-06-22T00:10:55.727Z,2.23
2018-06-22T00:13:24.139Z,3.20
2018-06-22T00:15:52.232Z,2.63
2018-06-22T00:18:20.674Z,1.77
2018-06-22T00:20:49.098Z,2.50
2018-06-22T00:23:17.503Z,2.43
2018-06-22T00:25:45.615Z,2.33
2018-06-22T00:28:14.020Z,2.00
2018-06-22T00:30:42.474Z,2.00
2018-06-22T00:33:10.865Z,2.43
2018-06-22T00:35:39.330Z,2.20
2018-06-22T00:38:07.807Z,3.33
2018-06-22T00:40:36.224Z,2.27
2018-06-22T00:43:04.667Z,2.50
2018-06-22T00:45:32.813Z,2.10
2018-06-22T00:48:01.336Z,2.50
2018-06-22T00:50:29.765Z,2.40
2018-06-22T00:52:58.201Z,2.00
2018-06-22T00:55:26.623Z,2.60
2018-06-22T00:57:54.815Z,1.90
2018-06-22T01:00:23.246Z,2.10
2018-06-22T01:02:51.381Z,1.90
2018-06-22T01:05:19.879Z,2.07
2018-06-22T01:07:48.300Z,2.20
2018-06-22T01:10:16.708Z,1.70
2018-06-22T01:12:45.096Z,2.40
2018-06-22T01:15:13.219Z,1.90
2018-06-22T01:17:41.598Z,1.90
2018-06-22T01:20:10.038Z,2.30
2018-06-22T01:22:38.129Z,2.23
2018-06-22T01:25:06.226Z,1.90
2018-06-22T01:27:34.607Z,2.30
2018-06-22T01:30:02.732Z,2.50
2018-06-22T01:32:31.133Z,2.30
2018-06-22T01:34:59.521Z,2.10
2018-06-22T01:37:28.010Z,2.00
2018-06-22T01:39:56.378Z,2.07
2018-06-22T01:42:24.800Z,2.30
2018-06-22T01:44:53.248Z,2.00
2018-06-22T01:47:21.656Z,2.43
2018-06-22T01:49:50.030Z,2.00
2018-06-22T01:52:18.125Z,1.97
2018-06-22T01:54:46.497Z,1.93
2018-06-22T01:57:14.610Z,2.00
2018-06-22T01:59:42.719Z,1.90
2018-06-22T02:02:11.122Z,2.30
2018-06-22T02:04:39.320Z,2.07
2018-06-22T02:07:07.429Z,2.33
2018-06-22T02:09:35.862Z,2.07
2018-06-22T02:12:04.284Z,2.03
2018-06-22T02:14:32.386Z,2.30
2018-06-22T02:17:00.510Z,2.40
2018-06-22T02:19:28.903Z,2.47
2018-06-22T02:21:57.320Z,2.03
2018-06-22T02:24:25.766Z,2.57
2018-06-22T02:26:54.201Z,2.40
2018-06-22T02:29:22.603Z,1.70
2018-06-22T02:31:50.686Z,2.10
2018-06-22T02:34:18.878Z,2.13
2018-06-22T02:36:47.372Z,2.77
2018-06-22T02:39:15.480Z,2.10
2018-06-22T02:41:43.928Z,2.20
2018-06-22T02:44:12.048Z,2.00
2018-06-22T02:46:40.485Z,2.10
2018-06-22T02:49:08.603Z,1.97
2018-06-22T02:51:37.043Z,1.90
2018-06-22T02:54:05.376Z,2.33
2018-06-22T02:56:33.813Z,2.50
2018-06-22T02:59:02.287Z,2.10
2018-06-22T03:01:30.747Z,2.27
2018-06-22T03:03:59.243Z,2.37
2018-06-22T03:06:27.630Z,3.00
2018-06-22T03:08:56.074Z,3.17
2018-06-22T03:11:24.159Z,2.60
2018-06-22T03:13:52.591Z,2.63
2018-06-22T03:16:20.685Z,2.30
2018-06-22T03:18:49.142Z,2.70
2018-06-22T03:21:17.239Z,2.60
2018-06-22T03:23:45.675Z,3.50
2018-06-22T03:26:14.091Z,3.23
2018-06-22T03:28:42.467Z,2.87
2018-06-22T03:31:10.567Z,2.30
2018-06-22T03:33:39.014Z,2.50
2018-06-22T03:36:07.116Z,2.47
2018-06-22T03:38:35.217Z,3.20
2018-06-22T03:41:03.310Z,2.77
2018-06-22T03:43:31.713Z,2.37
2018-06-22T03:46:00.133Z,2.70
2018-06-22T03:48:28.547Z,2.20
2018-06-22T03:50:56.641Z,3.57
2018-06-22T03:53:25.059Z,2.53
2018-06-22T03:55:54.454Z,2.33
2018-06-22T03:58:22.889Z,2.07
2018-06-22T04:00:51.336Z,2.17
2018-06-22T04:03:20.025Z,2.17
2018-06-22T04:05:48.207Z,2.30
2018-06-22T04:08:16.737Z,2.53
2018-06-22T04:10:45.605Z,2.60
2018-06-22T04:13:14.027Z,2.37
2018-06-22T04:15:42.460Z,2.47
2018-06-22T04:18:10.871Z,3.83
2018-06-22T04:20:39.437Z,1.97
2018-06-22T04:42:30.166Z,3.10
2018-06-22T04:44:58.633Z,2.13
2018-06-22T04:47:27.185Z,2.23
2018-06-22T04:49:55.611Z,3.50
2018-06-22T04:52:24.036Z,2.83
2018-06-22T04:54:52.333Z,2.53
2018-06-22T04:57:20.758Z,2.67
2018-06-22T04:59:49.043Z,2.93
2018-06-22T05:02:18.337Z,2.30
2018-06-22T05:04:46.462Z,2.33
2018-06-22T05:07:14.910Z,2.30
2018-06-22T05:09:43.333Z,2.27
2018-06-22T05:12:11.959Z,1.90
2018-06-22T05:14:40.432Z,2.70
2018-06-22T05:17:08.949Z,2.60
2018-06-22T05:19:37.416Z,1.90
2018-06-22T05:22:06.594Z,2.23
2018-06-22T05:24:35.403Z,2.70
2018-06-22T05:27:03.865Z,2.10
2018-06-22T05:29:33.366Z,2.50
2018-06-22T05:32:01.694Z,2.60
2018-06-22T05:34:29.810Z,2.77
2018-06-22T05:36:58.230Z,2.43
2018-06-22T05:45:19.186Z,2.47
2018-06-22T05:47:47.405Z,2.50
2018-06-22T05:50:15.569Z,3.23
2018-06-22T05:52:43.988Z,3.00
2018-06-22T05:55:12.389Z,2.23
2018-06-22T05:57:40.504Z,2.00
2018-06-22T06:00:08.603Z,2.97
2018-06-22T06:02:37.110Z,2.57
2018-06-22T06:05:05.580Z,2.60
2018-06-22T06:07:34.163Z,2.13
2018-06-22T06:10:02.288Z,3.20
2018-06-22T06:12:30.470Z,2.80
2018-06-22T06:14:58.506Z,1.93
2018-06-22T06:17:26.590Z,2.60
2018-06-22T06:19:55.162Z,3.13
2018-06-22T06:22:23.266Z,3.40
2018-06-22T06:24:51.846Z,2.60
2018-06-22T06:27:20.294Z,2.40
2018-06-22T06:29:48.644Z,2.67
2018-06-22T06:32:16.760Z,2.53
2018-06-22T06:34:44.978Z,2.27
2018-06-22T06:37:13.395Z,2.10
2018-06-22T06:39:41.823Z,2.20
2018-06-22T06:42:12.404Z,2.37
2018-06-22T06:44:40.867Z,2.83
2018-06-22T06:47:10.508Z,1.90
2018-06-22T06:49:38.661Z,2.93
2018-06-22T06:52:07.153Z,3.30
2018-06-22T06:54:35.686Z,2.23
2018-06-22T06:57:04.437Z,3.00
2018-06-22T06:59:33.100Z,3.30
2018-06-22T07:02:01.784Z,2.20
2018-06-22T07:04:30.229Z,3.20
2018-06-22T07:06:58.737Z,2.80
2018-06-22T07:09:27.341Z,2.33
2018-06-22T07:11:55.809Z,2.40
2018-06-22T07:14:24.261Z,2.10
2018-06-22T07:16:52.647Z,2.83
2018-06-22T07:19:21.094Z,2.50
2018-06-22T07:21:49.840Z,2.30
2018-06-22T07:24:18.297Z,2.60
2018-06-22T07:26:47.022Z,2.30
2018-06-22T07:29:15.560Z,3.20
2018-06-22T07:31:43.945Z,2.63
2018-06-22T07:34:12.384Z,2.23
2018-06-22T07:36:40.853Z,2.40
2018-06-22T07:39:10.885Z,2.07
2018-06-22T07:41:39.857Z,2.03
2018-06-22T07:44:08.134Z,2.27
2018-06-22T07:46:36.648Z,2.47
2018-06-22T07:49:05.073Z,2.50
2018-06-22T07:51:33.480Z,2.20
2018-06-22T07:54:01.885Z,2.10
2018-06-22T07:56:30.890Z,2.80
2018-06-22T07:58:59.430Z,2.83
2018-06-22T08:01:27.881Z,2.00
2018-06-22T08:03:56.300Z,2.40
2018-06-22T08:06:24.746Z,2.50
2018-06-22T08:08:53.225Z,2.47
2018-06-22T08:11:21.434Z,2.77
2018-06-22T08:13:49.879Z,2.23
2018-06-22T08:16:17.980Z,2.70
2018-06-22T08:18:46.490Z,3.00
2018-06-22T08:21:14.694Z,2.17
2018-06-22T08:23:42.858Z,2.27
2018-06-22T08:26:11.247Z,3.13
2018-06-22T08:28:39.665Z,2.23
2018-06-22T08:31:08.098Z,2.80
2018-06-22T08:33:36.200Z,3.40
2018-06-22T08:36:04.708Z,2.17
2018-06-22T08:38:32.821Z,2.90
2018-06-22T08:41:01.230Z,2.10
2018-06-22T08:43:29.318Z,2.27
2018-06-22T08:45:58.632Z,2.63
2018-06-22T08:48:26.816Z,2.57
2018-06-22T08:50:55.251Z,2.50
2018-06-22T08:53:23.772Z,2.17
2018-06-22T08:55:51.943Z,2.77
2018-06-22T08:58:20.354Z,2.10
2018-06-22T09:03:23.963Z,2.30
2018-06-22T09:05:52.444Z,2.13
2018-06-22T09:08:20.864Z,2.43
2018-06-22T09:10:49.280Z,2.30
2018-06-22T09:13:17.474Z,2.83
2018-06-22T09:15:45.579Z,2.70
2018-06-22T09:18:14.087Z,2.83
2018-06-22T09:20:42.172Z,2.30
2018-06-22T09:23:10.706Z,2.80
2018-06-22T09:25:39.099Z,2.80
2018-06-22T09:28:07.494Z,3.30
2018-06-22T09:30:35.589Z,2.03
2018-06-22T09:33:04.100Z,2.73
2018-06-22T09:35:32.652Z,2.77
2018-06-22T09:38:01.056Z,2.50
2018-06-22T09:40:29.147Z,2.47
2018-06-22T09:42:57.387Z,3.13
2018-06-22T09:45:25.850Z,2.17
2018-06-22T09:47:54.249Z,2.40
2018-06-22T09:50:22.656Z,2.63
2018-06-22T09:52:50.766Z,2.03
2018-06-22T09:55:19.287Z,2.53
2018-06-22T09:57:47.464Z,2.33
2018-06-22T10:00:18.199Z,2.50
2018-06-22T10:02:47.608Z,2.60
2018-06-22T10:05:16.160Z,2.60
2018-06-22T10:07:44.661Z,1.97
2018-06-22T10:10:12.777Z,2.63
2018-06-22T10:12:41.176Z,2.43
2018-06-22T10:15:09.572Z,2.60
2018-06-22T10:17:38.072Z,2.77
2018-06-22T10:20:06.474Z,2.03
2018-06-22T10:22:34.952Z,2.93
2018-06-22T10:25:03.162Z,2.60
2018-06-22T10:27:31.684Z,2.27
2018-06-22T10:29:59.780Z,2.07
2018-06-22T10:32:28.382Z,2.27
2018-06-22T10:34:56.788Z,2.67
2018-06-22T10:37:25.191Z,3.20
2018-06-22T10:39:53.653Z,2.80
2018-06-22T10:42:21.752Z,2.10
2018-06-22T10:44:50.185Z,2.70
2018-06-22T10:47:18.317Z,2.77
2018-06-22T10:49:46.795Z,2.50
2018-06-22T10:52:15.239Z,3.47
2018-06-22T10:54:43.390Z,2.57
2018-06-22T10:57:11.527Z,2.70
2018-06-22T10:59:39.822Z,2.80
2018-06-22T11:02:08.337Z,3.10
2018-06-22T11:04:36.453Z,3.07
2018-06-22T11:07:04.944Z,3.00
2018-06-22T11:09:33.373Z,3.07
2018-06-22T11:12:01.867Z,3.03
2018-06-22T11:14:30.293Z,3.33
2018-06-22T11:16:58.474Z,2.93
2018-06-22T11:19:26.619Z,3.10
2018-06-22T11:21:55.117Z,3.20
2018-06-22T11:24:23.276Z,3.00
2018-06-22T11:26:51.401Z,2.90
2018-06-22T11:29:19.805Z,2.27
2018-06-22T11:31:47.903Z,2.53
2018-06-22T11:34:16.014Z,2.10
2018-06-22T11:36:44.584Z,2.20
2018-06-22T11:39:12.995Z,2.87
2018-06-22T11:41:42.052Z,2.90
2018-06-22T11:44:11.147Z,2.77
2018-06-22T11:46:39.842Z,2.43
2018-06-22T11:49:08.006Z,2.03
2018-06-22T11:51:36.162Z,2.93
2018-06-22T11:54:04.643Z,2.73
2018-06-22T11:56:33.070Z,2.17
2018-06-22T11:59:01.578Z,2.10
2018-06-22T12:01:29.682Z,2.53
2018-06-22T12:03:58.329Z,2.00
2018-06-22T12:06:26.525Z,2.30
2018-06-22T12:08:54.636Z,2.43
2018-06-22T12:11:23.099Z,2.50
2018-06-22T12:13:51.630Z,2.10
2018-06-22T12:16:19.808Z,2.73
2018-06-22T12:18:48.334Z,2.47
2018-06-22T12:21:16.824Z,3.00
2018-06-22T12:23:45.300Z,3.20
2018-06-22T12:26:13.835Z,2.93
2018-06-22T12:28:42.370Z,2.77
2018-06-22T12:31:10.849Z,3.20
2018-06-22T12:33:39.256Z,2.50
2018-06-22T12:36:07.950Z,2.80
2018-06-22T12:38:36.248Z,2.50
2018-06-22T12:41:04.488Z,3.23
2018-06-22T12:43:33.080Z,3.20
2018-06-22T12:46:01.584Z,2.90
2018-06-22T12:48:30.040Z,2.63
2018-06-22T12:50:58.164Z,3.23
2018-06-22T12:53:26.347Z,2.90
2018-06-22T12:55:54.594Z,2.67
2018-06-22T12:58:23.012Z,2.33
2018-06-22T13:00:51.440Z,2.53
2018-06-22T13:03:20.813Z,2.70
2018-06-22T13:05:48.944Z,2.90
2018-06-22T13:08:17.380Z,2.60
2018-06-22T13:10:45.598Z,2.77
2018-06-22T13:13:14.150Z,2.57
2018-06-22T13:15:42.566Z,3.00
2018-06-22T13:18:11.055Z,2.53
2018-06-22T13:20:39.534Z,2.63
2018-06-22T13:23:08.037Z,2.93
2018-06-22T13:25:36.410Z,2.70
2018-06-22T13:28:04.598Z,2.80
2018-06-22T13:30:32.725Z,2.17
2018-06-22T13:33:01.164Z,2.70
2018-06-22T13:35:29.357Z,2.07
2018-06-22T13:37:58.677Z,2.70
2018-06-22T13:40:27.302Z,2.47
2018-06-22T13:42:55.830Z,2.20
2018-06-22T13:45:24.314Z,3.53
2018-06-22T13:47:52.476Z,2.50
2018-06-22T13:50:20.901Z,2.10
2018-06-22T13:52:49.339Z,2.30
2018-06-22T13:55:17.940Z,2.23
2018-06-22T13:57:46.104Z,2.00
2018-06-22T14:00:14.625Z,2.47
2018-06-22T14:02:43.053Z,2.13
2018-06-22T14:05:16.837Z,2.77
2018-06-22T14:07:45.344Z,2.80
2018-06-22T14:10:13.948Z,2.20
2018-06-22T14:12:42.407Z,3.37
2018-06-22T14:15:10.657Z,2.60
2018-06-22T14:17:38.767Z,2.40
2018-06-22T14:20:07.237Z,2.00
2018-06-22T14:22:35.348Z,2.50
2018-06-22T14:25:03.532Z,2.93
2018-06-22T14:27:33.068Z,3.00
2018-06-22T14:30:01.598Z,2.30
2018-06-22T14:32:30.129Z,2.30
2018-06-22T14:34:58.856Z,2.30
2018-06-22T14:37:27.286Z,1.87
2018-06-22T14:39:55.587Z,1.93
2018-06-22T14:42:24.071Z,2.07
2018-06-22T14:44:52.761Z,1.83
2018-06-22T14:47:20.888Z,2.50
2018-06-22T14:49:49.722Z,2.13
2018-06-22T14:52:17.901Z,2.23
2018-06-22T14:54:51.561Z,1.80
2018-06-22T14:57:25.263Z,2.00
2018-06-22T15:01:00.065Z,2.10
2018-06-22T15:03:33.777Z,1.97
2018-06-22T15:06:07.295Z,2.37
2018-06-22T15:08:35.790Z,2.13
2018-06-22T15:11:04.343Z,2.10
2018-06-22T15:13:32.837Z,2.13
2018-06-22T15:16:02.388Z,1.77
2018-06-22T15:18:30.873Z,1.67
2018-06-22T15:20:59.364Z,2.20
2018-06-22T15:23:27.833Z,2.10
2018-06-22T15:25:56.294Z,1.93
2018-06-22T15:28:24.784Z,2.10
2018-06-22T15:30:53.233Z,1.73
2018-06-22T15:33:26.951Z,2.00
2018-06-22T15:36:00.649Z,2.37
2018-06-22T15:38:34.408Z,1.93
2018-06-22T15:41:08.178Z,2.00
2018-06-22T15:43:42.016Z,2.07
2018-06-22T15:46:15.933Z,1.97
2018-06-22T15:48:49.833Z,2.73
2018-06-22T15:51:23.866Z,2.70
2018-06-22T15:53:57.766Z,2.03
2018-06-22T15:56:26.628Z,2.37
2018-06-22T15:58:55.054Z,1.50
2018-06-22T16:01:23.620Z,2.20
2018-06-22T16:03:58.332Z,2.10
2018-06-22T16:06:27.565Z,2.10
2018-06-22T16:08:56.044Z,1.80
2018-06-22T16:11:28.915Z,1.70
2018-06-22T16:14:02.627Z,2.27
2018-06-22T16:16:36.397Z,2.20
2018-06-22T16:19:10.004Z,2.40
2018-06-22T16:21:43.691Z,2.57
2018-06-22T16:24:17.510Z,2.10
2018-06-22T16:26:51.169Z,2.07
2018-06-22T16:29:19.680Z,2.20
2018-06-22T16:31:47.829Z,2.03
2018-06-22T16:34:16.326Z,1.73
2018-06-22T16:36:44.465Z,2.13
2018-06-22T16:39:14.048Z,1.63
2018-06-22T16:41:42.622Z,2.80
2018-06-22T16:44:11.648Z,2.50
2018-06-22T16:46:40.151Z,2.20
2018-06-22T16:49:08.688Z,2.17
2018-06-22T16:51:37.127Z,1.70
2018-06-22T16:54:06.211Z,2.77
2018-06-22T16:56:34.701Z,2.10
2018-06-22T16:59:04.385Z,2.20
2018-06-22T17:01:33.449Z,2.07
2018-06-22T17:04:01.892Z,2.40
2018-06-22T17:06:35.594Z,1.70
2018-06-22T17:09:11.539Z,2.00
2018-06-22T17:11:45.443Z,2.43
2018-06-22T17:14:19.203Z,2.30
2018-06-22T17:16:52.619Z,2.40
2018-06-22T17:19:20.908Z,2.23
2018-06-22T17:21:49.988Z,2.20
2018-06-22T17:24:20.365Z,2.30
2018-06-22T17:26:49.208Z,1.93
2018-06-22T17:29:18.104Z,2.97
2018-06-22T17:31:46.986Z,3.20
2018-06-22T17:34:15.246Z,2.77
2018-06-22T17:36:43.478Z,2.47
2018-06-22T17:39:12.633Z,2.60
2018-06-22T17:41:40.941Z,1.73
2018-06-22T17:44:10.060Z,4.67
2018-06-22T17:46:38.587Z,3.07
2018-06-22T17:49:07.384Z,2.90
2018-06-22T17:51:36.048Z,2.60
2018-06-22T17:54:04.242Z,2.87
2018-06-22T17:56:33.419Z,2.43
2018-06-22T17:59:07.178Z,3.13
2018-06-22T18:01:40.945Z,2.10
2018-06-22T18:04:14.770Z,1.87
2018-06-22T18:06:48.667Z,2.27
2018-06-22T18:09:22.182Z,2.40
2018-06-22T18:11:56.992Z,2.10
2018-06-22T18:14:25.194Z,2.10
2018-06-22T18:16:54.150Z,2.10
2018-06-22T18:19:22.425Z,2.30
2018-06-22T18:21:50.601Z,2.60
2018-06-22T18:24:19.185Z,2.17
2018-06-22T18:26:48.395Z,2.17
2018-06-22T18:29:16.970Z,2.50
2018-06-22T18:31:46.659Z,3.20
2018-06-22T18:34:15.285Z,2.10
2018-06-22T18:36:43.890Z,2.40
2018-06-22T18:39:13.524Z,2.30
2018-06-22T18:41:42.385Z,2.37
2018-06-22T18:44:14.934Z,2.20
2018-06-22T18:46:43.151Z,2.87
2018-06-22T18:49:11.415Z,2.40
2018-06-22T18:51:40.021Z,2.80
2018-06-22T18:54:13.663Z,2.47
2018-06-22T18:56:48.409Z,2.40
2018-06-22T18:59:22.173Z,2.80
2018-06-22T19:02:55.771Z,2.60
2018-06-22T19:05:25.117Z,2.43
2018-06-22T19:07:53.761Z,2.90
2018-06-22T19:10:22.068Z,2.50
2018-06-22T19:12:53.809Z,2.33
2018-06-22T19:15:22.755Z,2.60
2018-06-22T19:17:50.956Z,3.00
2018-06-22T19:20:19.180Z,2.07
2018-06-22T19:22:48.499Z,2.20
2018-06-22T19:25:18.220Z,2.03
2018-06-22T19:27:47.313Z,2.10
2018-06-22T19:30:16.410Z,2.47
2018-06-22T19:32:46.409Z,2.10
2018-06-22T19:35:15.527Z,2.00
2018-06-22T19:37:45.499Z,2.17
2018-06-22T19:40:15.127Z,2.33
2018-06-22T19:42:43.416Z,2.30
2018-06-22T19:45:18.295Z,2.00
2018-06-22T19:47:52.343Z,2.27
2018-06-22T19:50:25.957Z,2.17
2018-06-22T19:52:59.680Z,2.07
2018-06-22T19:55:31.773Z,2.20
2018-06-22T19:58:00.242Z,1.83
2018-06-22T20:00:29.874Z,2.30
2018-06-22T20:02:58.161Z,2.60
2018-06-22T20:05:28.531Z,2.30
2018-06-22T20:07:57.101Z,2.90
2018-06-22T20:10:26.111Z,2.40
2018-06-22T20:12:54.552Z,2.40
2018-06-22T20:15:25.533Z,2.87
2018-06-22T20:17:54.989Z,2.10
2018-06-22T20:20:23.233Z,2.50
2018-06-22T20:22:52.569Z,2.97
2018-06-22T20:25:26.540Z,2.83
2018-06-22T20:27:54.954Z,2.57
2018-06-22T20:30:24.672Z,2.30
2018-06-22T20:32:53.362Z,3.40
2018-06-22T20:35:27.003Z,3.57
2018-06-22T20:38:00.554Z,2.60
2018-06-22T20:40:36.333Z,2.87
2018-06-22T20:43:10.510Z,2.80
2018-06-22T20:45:41.324Z,2.47
2018-06-22T20:48:15.307Z,2.70
2018-06-22T20:50:44.511Z,2.30
2018-06-22T20:53:13.047Z,3.10
2018-06-22T20:55:42.466Z,2.83
2018-06-22T20:58:12.014Z,3.17
2018-06-22T21:00:40.548Z,3.03
2018-06-22T21:03:08.826Z,2.80
2018-06-22T21:05:37.070Z,3.00
2018-06-22T21:08:05.740Z,2.40
2018-06-22T21:10:33.914Z,2.73
2018-06-22T21:13:02.581Z,3.30
2018-06-22T21:15:30.654Z,2.80
2018-06-22T21:17:59.642Z,3.40
2018-06-22T21:20:27.840Z,3.40
2018-06-22T21:22:57.250Z,4.37
2018-06-22T21:25:26.069Z,3.27
2018-06-22T21:28:00.002Z,3.20
2018-06-22T21:30:33.610Z,4.13
2018-06-22T21:33:07.321Z,4.30
2018-06-22T21:35:40.907Z,3.63
2018-06-22T21:38:14.506Z,4.50
2018-06-22T21:40:43.024Z,4.17
2018-06-22T21:43:12.349Z,4.10
2018-06-22T21:45:40.868Z,3.67
2018-06-22T21:48:09.329Z,3.47
2018-06-22T21:50:37.905Z,3.80
2018-06-22T21:53:06.338Z,4.00
2018-06-22T21:55:34.525Z,4.23
2018-06-22T21:58:03.072Z,3.87
2018-06-22T22:00:32.937Z,4.00
2018-06-22T22:03:01.824Z,4.00
2018-06-22T22:05:31.082Z,4.17
2018-06-22T22:07:59.858Z,3.23
2018-06-22T22:10:33.336Z,4.10
2018-06-22T22:13:01.478Z,3.70
2018-06-22T22:15:30.328Z,4.40
2018-06-22T22:17:58.766Z,4.40
2018-06-22T22:20:27.214Z,4.33
2018-06-22T22:22:55.734Z,4.77
2018-06-22T22:25:24.198Z,4.00
2018-06-22T22:27:52.294Z,4.07
2018-06-22T22:30:20.415Z,4.40
2018-06-22T22:32:48.872Z,4.10
2018-06-22T22:35:17.298Z,3.43
2018-06-22T22:37:45.401Z,3.50
2018-06-22T22:40:13.818Z,4.03
2018-06-22T22:42:42.260Z,3.70
2018-06-22T22:45:10.688Z,3.70
2018-06-22T22:47:38.800Z,4.50
2018-06-22T22:50:07.246Z,4.30
2018-06-22T22:52:35.420Z,4.30
2018-06-22T22:55:03.584Z,4.63
2018-06-22T22:57:31.723Z,4.43
2018-06-22T23:00:00.130Z,4.13
2018-06-22T23:02:28.570Z,4.70
2018-06-22T23:04:56.880Z,5.90
2018-06-22T23:07:24.990Z,4.13
2018-06-22T23:09:53.450Z,4.90
2018-06-22T23:12:22.115Z,4.90
2018-06-22T23:14:50.284Z,4.30
2018-06-22T23:17:18.701Z,4.93
2018-06-22T23:19:46.840Z,4.37
2018-06-22T23:22:15.089Z,4.73
2018-06-22T23:24:43.514Z,4.40
2018-06-22T23:27:11.622Z,4.57
2018-06-22T23:29:40.073Z,4.57
2018-06-22T23:32:08.179Z,4.60
2018-06-22T23:34:36.607Z,4.50
2018-06-22T23:37:05.046Z,5.27
2018-06-22T23:39:33.469Z,4.67
2018-06-22T23:42:01.901Z,5.00
2018-06-22T23:44:30.423Z,4.50
2018-06-22T23:46:58.555Z,5.37
2018-06-22T23:49:26.965Z,5.50
2018-06-22T23:51:55.376Z,4.63
2018-06-22T23:54:23.787Z,4.47
2018-06-22T23:56:52.181Z,4.97
2018-06-22T23:59:20.311Z,5.10
